sensor_id;sensor_type;location;lat;lon;timestamp;P1;durP1;ratioP1;P2;durP2;ratioP2
57635;SDS011;43465;50.728;4.160;2023-04-24T00:01:27;29.50;;;18.05;;
57635;SDS011;43465;50.728;4.160;2023-04-24T00:03:54;28.55;;;17.23;;
57635;SDS011;43465;50.728;4.160;2023-04-24T00:06:24;31.67;;;18.00;;
57635;SDS011;43465;50.728;4.160;2023-04-24T00:08:57;25.98;;;17.20;;
57635;SDS011;43465;50.728;4.160;2023-04-24T00:11:24;26.88;;;18.27;;
57635;SDS011;43465;50.728;4.160;2023-04-24T00:13:50;31.00;;;17.75;;
57635;SDS011;43465;50.728;4.160;2023-04-24T00:16:15;28.65;;;18.10;;
57635;SDS011;43465;50.728;4.160;2023-04-24T00:18:41;28.70;;;18.17;;
57635;SDS011;43465;50.728;4.160;2023-04-24T00:21:07;27.73;;;18.33;;
57635;SDS011;43465;50.728;4.160;2023-04-24T00:23:32;29.38;;;18.73;;
57635;SDS011;43465;50.728;4.160;2023-04-24T00:25:58;31.75;;;18.75;;
57635;SDS011;43465;50.728;4.160;2023-04-24T00:28:24;31.25;;;19.10;;
57635;SDS011;43465;50.728;4.160;2023-04-24T00:30:49;32.03;;;19.27;;
57635;SDS011;43465;50.728;4.160;2023-04-24T00:33:15;30.42;;;18.73;;
57635;SDS011;43465;50.728;4.160;2023-04-24T00:35:41;34.05;;;20.27;;
57635;SDS011;43465;50.728;4.160;2023-04-24T00:38:06;31.65;;;19.08;;
57635;SDS011;43465;50.728;4.160;2023-04-24T00:40:32;33.13;;;20.55;;
57635;SDS011;43465;50.728;4.160;2023-04-24T00:42:58;39.90;;;20.70;;
57635;SDS011;43465;50.728;4.160;2023-04-24T00:45:23;39.47;;;21.13;;
57635;SDS011;43465;50.728;4.160;2023-04-24T00:47:49;30.92;;;20.98;;
57635;SDS011;43465;50.728;4.160;2023-04-24T00:50:17;39.67;;;21.80;;
57635;SDS011;43465;50.728;4.160;2023-04-24T00:52:44;39.55;;;22.30;;
57635;SDS011;43465;50.728;4.160;2023-04-24T00:55:10;30.88;;;21.48;;
57635;SDS011;43465;50.728;4.160;2023-04-24T00:57:36;33.67;;;21.35;;
57635;SDS011;43465;50.728;4.160;2023-04-24T01:00:03;30.70;;;20.80;;
57635;SDS011;43465;50.728;4.160;2023-04-24T01:02:30;36.25;;;20.98;;
57635;SDS011;43465;50.728;4.160;2023-04-24T01:04:59;35.47;;;20.60;;
57635;SDS011;43465;50.728;4.160;2023-04-24T01:07:26;30.80;;;20.48;;
57635;SDS011;43465;50.728;4.160;2023-04-24T01:09:52;32.47;;;20.13;;
57635;SDS011;43465;50.728;4.160;2023-04-24T01:12:18;35.75;;;22.70;;
57635;SDS011;43465;50.728;4.160;2023-04-24T01:14:44;35.38;;;22.48;;
57635;SDS011;43465;50.728;4.160;2023-04-24T01:17:10;35.85;;;22.92;;
57635;SDS011;43465;50.728;4.160;2023-04-24T01:19:36;37.15;;;24.33;;
57635;SDS011;43465;50.728;4.160;2023-04-24T01:22:03;37.00;;;24.27;;
57635;SDS011;43465;50.728;4.160;2023-04-24T01:24:33;36.95;;;23.73;;
57635;SDS011;43465;50.728;4.160;2023-04-24T01:26:59;39.95;;;24.67;;
57635;SDS011;43465;50.728;4.160;2023-04-24T01:29:26;43.53;;;24.65;;
57635;SDS011;43465;50.728;4.160;2023-04-24T01:31:52;36.45;;;24.23;;
57635;SDS011;43465;50.728;4.160;2023-04-24T01:34:18;35.50;;;24.63;;
57635;SDS011;43465;50.728;4.160;2023-04-24T01:36:45;45.63;;;25.50;;
57635;SDS011;43465;50.728;4.160;2023-04-24T01:39:11;38.92;;;24.80;;
57635;SDS011;43465;50.728;4.160;2023-04-24T01:41:37;42.58;;;26.38;;
57635;SDS011;43465;50.728;4.160;2023-04-24T01:44:03;41.35;;;25.83;;
57635;SDS011;43465;50.728;4.160;2023-04-24T01:46:29;41.33;;;25.27;;
57635;SDS011;43465;50.728;4.160;2023-04-24T01:48:56;44.85;;;26.23;;
57635;SDS011;43465;50.728;4.160;2023-04-24T01:51:25;39.30;;;25.70;;
57635;SDS011;43465;50.728;4.160;2023-04-24T01:53:50;39.20;;;25.90;;
57635;SDS011;43465;50.728;4.160;2023-04-24T01:56:16;41.75;;;25.67;;
57635;SDS011;43465;50.728;4.160;2023-04-24T01:58:42;39.83;;;25.25;;
57635;SDS011;43465;50.728;4.160;2023-04-24T02:01:09;42.30;;;25.85;;
57635;SDS011;43465;50.728;4.160;2023-04-24T02:03:40;42.63;;;26.20;;
57635;SDS011;43465;50.728;4.160;2023-04-24T02:06:07;40.35;;;25.83;;
57635;SDS011;43465;50.728;4.160;2023-04-24T02:08:32;43.47;;;25.58;;
57635;SDS011;43465;50.728;4.160;2023-04-24T02:10:58;41.45;;;24.80;;
57635;SDS011;43465;50.728;4.160;2023-04-24T02:13:23;42.92;;;24.92;;
57635;SDS011;43465;50.728;4.160;2023-04-24T02:15:49;37.17;;;24.08;;
57635;SDS011;43465;50.728;4.160;2023-04-24T02:18:15;37.63;;;23.00;;
57635;SDS011;43465;50.728;4.160;2023-04-24T02:20:41;37.55;;;23.55;;
57635;SDS011;43465;50.728;4.160;2023-04-24T02:23:07;41.17;;;22.67;;
57635;SDS011;43465;50.728;4.160;2023-04-24T02:25:33;33.25;;;22.23;;
57635;SDS011;43465;50.728;4.160;2023-04-24T02:27:58;34.90;;;22.58;;
57635;SDS011;43465;50.728;4.160;2023-04-24T02:30:24;38.85;;;21.80;;
57635;SDS011;43465;50.728;4.160;2023-04-24T02:32:50;36.88;;;21.50;;
57635;SDS011;43465;50.728;4.160;2023-04-24T02:35:16;32.83;;;21.40;;
57635;SDS011;43465;50.728;4.160;2023-04-24T02:37:42;34.42;;;21.00;;
57635;SDS011;43465;50.728;4.160;2023-04-24T02:40:08;38.83;;;21.23;;
57635;SDS011;43465;50.728;4.160;2023-04-24T02:42:34;34.22;;;20.30;;
57635;SDS011;43465;50.728;4.160;2023-04-24T02:45:00;30.70;;;19.92;;
57635;SDS011;43465;50.728;4.160;2023-04-24T02:47:25;31.35;;;19.33;;
57635;SDS011;43465;50.728;4.160;2023-04-24T02:49:51;29.58;;;18.52;;
57635;SDS011;43465;50.728;4.160;2023-04-24T02:52:17;33.33;;;20.25;;
57635;SDS011;43465;50.728;4.160;2023-04-24T02:54:42;29.02;;;18.98;;
57635;SDS011;43465;50.728;4.160;2023-04-24T02:57:08;35.42;;;19.13;;
57635;SDS011;43465;50.728;4.160;2023-04-24T02:59:34;30.10;;;18.83;;
57635;SDS011;43465;50.728;4.160;2023-04-24T03:02:00;29.55;;;19.85;;
57635;SDS011;43465;50.728;4.160;2023-04-24T03:04:25;27.38;;;19.30;;
57635;SDS011;43465;50.728;4.160;2023-04-24T03:06:51;31.10;;;19.45;;
57635;SDS011;43465;50.728;4.160;2023-04-24T03:09:19;29.30;;;19.52;;
57635;SDS011;43465;50.728;4.160;2023-04-24T03:11:45;35.10;;;19.80;;
57635;SDS011;43465;50.728;4.160;2023-04-24T03:14:11;37.22;;;20.98;;
57635;SDS011;43465;50.728;4.160;2023-04-24T03:16:37;34.72;;;20.20;;
57635;SDS011;43465;50.728;4.160;2023-04-24T03:19:03;31.88;;;20.63;;
57635;SDS011;43465;50.728;4.160;2023-04-24T03:21:29;30.30;;;20.17;;
57635;SDS011;43465;50.728;4.160;2023-04-24T03:23:55;31.48;;;20.15;;
57635;SDS011;43465;50.728;4.160;2023-04-24T03:26:21;31.60;;;20.27;;
57635;SDS011;43465;50.728;4.160;2023-04-24T03:28:46;26.02;;;17.75;;
57635;SDS011;43465;50.728;4.160;2023-04-24T03:31:12;30.20;;;18.83;;
57635;SDS011;43465;50.728;4.160;2023-04-24T03:33:37;33.17;;;18.55;;
57635;SDS011;43465;50.728;4.160;2023-04-24T03:36:03;25.60;;;17.55;;
57635;SDS011;43465;50.728;4.160;2023-04-24T03:38:30;26.00;;;17.98;;
57635;SDS011;43465;50.728;4.160;2023-04-24T03:40:55;29.17;;;18.10;;
57635;SDS011;43465;50.728;4.160;2023-04-24T03:43:21;29.95;;;19.23;;
57635;SDS011;43465;50.728;4.160;2023-04-24T03:45:46;29.42;;;19.50;;
57635;SDS011;43465;50.728;4.160;2023-04-24T03:48:12;30.40;;;19.95;;
57635;SDS011;43465;50.728;4.160;2023-04-24T03:50:38;27.75;;;19.30;;
57635;SDS011;43465;50.728;4.160;2023-04-24T03:53:04;26.60;;;17.88;;
57635;SDS011;43465;50.728;4.160;2023-04-24T03:55:30;25.85;;;17.35;;
57635;SDS011;43465;50.728;4.160;2023-04-24T03:57:55;21.27;;;16.20;;
57635;SDS011;43465;50.728;4.160;2023-04-24T04:00:21;20.83;;;14.95;;
57635;SDS011;43465;50.728;4.160;2023-04-24T04:02:47;23.45;;;14.75;;
57635;SDS011;43465;50.728;4.160;2023-04-24T04:05:12;20.88;;;14.50;;
57635;SDS011;43465;50.728;4.160;2023-04-24T04:07:38;16.88;;;13.18;;
57635;SDS011;43465;50.728;4.160;2023-04-24T04:10:04;19.25;;;12.40;;
57635;SDS011;43465;50.728;4.160;2023-04-24T04:12:31;14.60;;;11.30;;
57635;SDS011;43465;50.728;4.160;2023-04-24T04:14:57;16.63;;;10.95;;
57635;SDS011;43465;50.728;4.160;2023-04-24T04:17:23;13.68;;;10.43;;
57635;SDS011;43465;50.728;4.160;2023-04-24T04:19:48;13.02;;;9.80;;
57635;SDS011;43465;50.728;4.160;2023-04-24T04:22:14;14.52;;;9.75;;
57635;SDS011;43465;50.728;4.160;2023-04-24T04:24:40;12.40;;;9.77;;
57635;SDS011;43465;50.728;4.160;2023-04-24T04:27:06;12.88;;;10.15;;
57635;SDS011;43465;50.728;4.160;2023-04-24T04:29:33;12.75;;;10.18;;
57635;SDS011;43465;50.728;4.160;2023-04-24T04:32:00;14.95;;;11.05;;
57635;SDS011;43465;50.728;4.160;2023-04-24T04:34:27;13.40;;;10.48;;
57635;SDS011;43465;50.728;4.160;2023-04-24T04:36:54;14.43;;;11.45;;
57635;SDS011;43465;50.728;4.160;2023-04-24T04:39:20;16.90;;;11.55;;
57635;SDS011;43465;50.728;4.160;2023-04-24T04:41:46;16.02;;;12.10;;
57635;SDS011;43465;50.728;4.160;2023-04-24T04:44:13;16.48;;;13.05;;
57635;SDS011;43465;50.728;4.160;2023-04-24T04:46:39;20.42;;;14.48;;
57635;SDS011;43465;50.728;4.160;2023-04-24T04:49:06;24.15;;;14.98;;
57635;SDS011;43465;50.728;4.160;2023-04-24T04:51:33;18.48;;;14.10;;
57635;SDS011;43465;50.728;4.160;2023-04-24T04:53:59;18.15;;;15.05;;
57635;SDS011;43465;50.728;4.160;2023-04-24T04:56:25;21.13;;;15.82;;
57635;SDS011;43465;50.728;4.160;2023-04-24T04:58:51;23.25;;;14.55;;
57635;SDS011;43465;50.728;4.160;2023-04-24T05:01:16;21.40;;;15.15;;
57635;SDS011;43465;50.728;4.160;2023-04-24T05:03:42;24.13;;;15.73;;
57635;SDS011;43465;50.728;4.160;2023-04-24T05:06:08;20.90;;;15.90;;
57635;SDS011;43465;50.728;4.160;2023-04-24T05:08:34;21.65;;;15.05;;
57635;SDS011;43465;50.728;4.160;2023-04-24T05:10:59;21.88;;;16.10;;
57635;SDS011;43465;50.728;4.160;2023-04-24T05:13:26;24.30;;;15.85;;
57635;SDS011;43465;50.728;4.160;2023-04-24T05:15:51;19.77;;;15.25;;
57635;SDS011;43465;50.728;4.160;2023-04-24T05:18:17;24.35;;;15.98;;
57635;SDS011;43465;50.728;4.160;2023-04-24T05:20:43;28.30;;;16.23;;
57635;SDS011;43465;50.728;4.160;2023-04-24T05:23:09;24.67;;;15.57;;
57635;SDS011;43465;50.728;4.160;2023-04-24T05:25:35;22.58;;;15.50;;
57635;SDS011;43465;50.728;4.160;2023-04-24T05:28:01;24.90;;;14.77;;
57635;SDS011;43465;50.728;4.160;2023-04-24T05:30:27;28.33;;;15.35;;
57635;SDS011;43465;50.728;4.160;2023-04-24T05:32:53;21.20;;;13.88;;
57635;SDS011;43465;50.728;4.160;2023-04-24T05:35:19;19.35;;;13.57;;
57635;SDS011;43465;50.728;4.160;2023-04-24T05:37:45;20.88;;;13.45;;
57635;SDS011;43465;50.728;4.160;2023-04-24T05:40:11;19.58;;;12.82;;
57635;SDS011;43465;50.728;4.160;2023-04-24T05:42:36;21.15;;;13.35;;
57635;SDS011;43465;50.728;4.160;2023-04-24T05:45:02;24.08;;;13.35;;
57635;SDS011;43465;50.728;4.160;2023-04-24T05:47:28;23.23;;;13.90;;
57635;SDS011;43465;50.728;4.160;2023-04-24T05:49:54;18.92;;;14.02;;
57635;SDS011;43465;50.728;4.160;2023-04-24T05:52:20;21.70;;;14.32;;
57635;SDS011;43465;50.728;4.160;2023-04-24T05:54:45;21.40;;;14.32;;
57635;SDS011;43465;50.728;4.160;2023-04-24T05:57:11;23.05;;;15.48;;
57635;SDS011;43465;50.728;4.160;2023-04-24T05:59:37;27.25;;;16.10;;
57635;SDS011;43465;50.728;4.160;2023-04-24T06:02:06;28.23;;;16.60;;
57635;SDS011;43465;50.728;4.160;2023-04-24T06:04:32;26.25;;;16.30;;
57635;SDS011;43465;50.728;4.160;2023-04-24T06:06:58;26.83;;;17.38;;
57635;SDS011;43465;50.728;4.160;2023-04-24T06:09:24;28.40;;;18.50;;
57635;SDS011;43465;50.728;4.160;2023-04-24T06:11:50;29.98;;;19.17;;
57635;SDS011;43465;50.728;4.160;2023-04-24T06:14:19;28.25;;;19.27;;
57635;SDS011;43465;50.728;4.160;2023-04-24T06:16:46;30.63;;;20.02;;
57635;SDS011;43465;50.728;4.160;2023-04-24T06:19:11;32.15;;;19.95;;
57635;SDS011;43465;50.728;4.160;2023-04-24T06:21:37;30.02;;;20.23;;
57635;SDS011;43465;50.728;4.160;2023-04-24T06:24:03;36.85;;;21.70;;
57635;SDS011;43465;50.728;4.160;2023-04-24T06:26:29;31.85;;;21.13;;
57635;SDS011;43465;50.728;4.160;2023-04-24T06:28:55;34.60;;;20.95;;
57635;SDS011;43465;50.728;4.160;2023-04-24T06:31:24;36.20;;;21.92;;
57635;SDS011;43465;50.728;4.160;2023-04-24T06:33:49;34.92;;;21.52;;
57635;SDS011;43465;50.728;4.160;2023-04-24T06:36:15;37.63;;;21.00;;
57635;SDS011;43465;50.728;4.160;2023-04-24T06:38:42;28.58;;;20.30;;
57635;SDS011;43465;50.728;4.160;2023-04-24T06:41:07;37.28;;;21.92;;
57635;SDS011;43465;50.728;4.160;2023-04-24T06:43:33;31.83;;;20.73;;
57635;SDS011;43465;50.728;4.160;2023-04-24T06:45:59;30.58;;;21.15;;
57635;SDS011;43465;50.728;4.160;2023-04-24T06:48:25;33.17;;;18.83;;
57635;SDS011;43465;50.728;4.160;2023-04-24T06:50:51;31.27;;;21.48;;
57635;SDS011;43465;50.728;4.160;2023-04-24T06:53:17;32.72;;;19.27;;
57635;SDS011;43465;50.728;4.160;2023-04-24T06:55:43;28.50;;;19.83;;
57635;SDS011;43465;50.728;4.160;2023-04-24T06:58:10;28.63;;;19.17;;
57635;SDS011;43465;50.728;4.160;2023-04-24T07:00:36;28.02;;;18.38;;
57635;SDS011;43465;50.728;4.160;2023-04-24T07:03:03;29.98;;;19.90;;
57635;SDS011;43465;50.728;4.160;2023-04-24T07:05:30;30.95;;;19.42;;
57635;SDS011;43465;50.728;4.160;2023-04-24T07:07:56;30.95;;;19.20;;
57635;SDS011;43465;50.728;4.160;2023-04-24T07:10:23;32.45;;;19.13;;
57635;SDS011;43465;50.728;4.160;2023-04-24T07:12:49;27.27;;;19.42;;
57635;SDS011;43465;50.728;4.160;2023-04-24T07:15:15;31.92;;;19.30;;
57635;SDS011;43465;50.728;4.160;2023-04-24T07:17:41;28.80;;;19.40;;
57635;SDS011;43465;50.728;4.160;2023-04-24T07:20:10;28.27;;;19.00;;
57635;SDS011;43465;50.728;4.160;2023-04-24T07:22:39;31.60;;;18.55;;
57635;SDS011;43465;50.728;4.160;2023-04-24T07:25:05;25.60;;;17.20;;
57635;SDS011;43465;50.728;4.160;2023-04-24T07:27:32;25.63;;;18.35;;
57635;SDS011;43465;50.728;4.160;2023-04-24T07:29:58;27.50;;;17.90;;
57635;SDS011;43465;50.728;4.160;2023-04-24T07:32:24;29.38;;;18.55;;
57635;SDS011;43465;50.728;4.160;2023-04-24T07:34:50;28.70;;;18.25;;
57635;SDS011;43465;50.728;4.160;2023-04-24T07:37:15;32.95;;;17.92;;
57635;SDS011;43465;50.728;4.160;2023-04-24T07:39:41;29.17;;;17.60;;
57635;SDS011;43465;50.728;4.160;2023-04-24T07:42:07;27.00;;;17.38;;
57635;SDS011;43465;50.728;4.160;2023-04-24T07:44:33;31.65;;;16.55;;
57635;SDS011;43465;50.728;4.160;2023-04-24T07:46:59;26.98;;;17.48;;
57635;SDS011;43465;50.728;4.160;2023-04-24T07:49:24;27.88;;;18.50;;
57635;SDS011;43465;50.728;4.160;2023-04-24T07:51:50;29.40;;;19.05;;
57635;SDS011;43465;50.728;4.160;2023-04-24T07:54:16;26.63;;;17.67;;
57635;SDS011;43465;50.728;4.160;2023-04-24T07:56:43;24.85;;;18.40;;
57635;SDS011;43465;50.728;4.160;2023-04-24T07:59:09;30.63;;;18.13;;
57635;SDS011;43465;50.728;4.160;2023-04-24T08:01:35;26.65;;;17.98;;
57635;SDS011;43465;50.728;4.160;2023-04-24T08:04:01;23.92;;;16.63;;
57635;SDS011;43465;50.728;4.160;2023-04-24T08:06:27;28.38;;;18.23;;
57635;SDS011;43465;50.728;4.160;2023-04-24T08:08:55;28.73;;;17.00;;
57635;SDS011;43465;50.728;4.160;2023-04-24T08:11:21;24.40;;;16.67;;
57635;SDS011;43465;50.728;4.160;2023-04-24T08:13:47;25.17;;;16.05;;
57635;SDS011;43465;50.728;4.160;2023-04-24T08:16:13;23.25;;;15.88;;
57635;SDS011;43465;50.728;4.160;2023-04-24T08:18:39;20.55;;;15.30;;
57635;SDS011;43465;50.728;4.160;2023-04-24T08:21:04;21.15;;;14.77;;
57635;SDS011;43465;50.728;4.160;2023-04-24T08:23:30;22.63;;;15.65;;
57635;SDS011;43465;50.728;4.160;2023-04-24T08:25:56;23.33;;;15.02;;
57635;SDS011;43465;50.728;4.160;2023-04-24T08:28:22;21.90;;;13.93;;
57635;SDS011;43465;50.728;4.160;2023-04-24T08:30:48;18.23;;;12.82;;
57635;SDS011;43465;50.728;4.160;2023-04-24T08:33:19;19.08;;;12.20;;
57635;SDS011;43465;50.728;4.160;2023-04-24T08:35:45;18.90;;;11.77;;
57635;SDS011;43465;50.728;4.160;2023-04-24T08:38:11;20.80;;;11.05;;
57635;SDS011;43465;50.728;4.160;2023-04-24T08:40:37;14.20;;;9.48;;
57635;SDS011;43465;50.728;4.160;2023-04-24T08:43:03;16.20;;;7.93;;
57635;SDS011;43465;50.728;4.160;2023-04-24T08:45:29;11.93;;;7.60;;
57635;SDS011;43465;50.728;4.160;2023-04-24T08:47:55;11.77;;;6.03;;
57635;SDS011;43465;50.728;4.160;2023-04-24T08:50:22;13.57;;;7.93;;
57635;SDS011;43465;50.728;4.160;2023-04-24T08:52:50;14.98;;;8.32;;
57635;SDS011;43465;50.728;4.160;2023-04-24T08:55:18;14.93;;;8.57;;
57635;SDS011;43465;50.728;4.160;2023-04-24T08:57:45;13.43;;;7.13;;
57635;SDS011;43465;50.728;4.160;2023-04-24T09:00:15;12.48;;;6.75;;
57635;SDS011;43465;50.728;4.160;2023-04-24T09:02:42;11.05;;;6.75;;
57635;SDS011;43465;50.728;4.160;2023-04-24T09:05:09;11.82;;;6.57;;
57635;SDS011;43465;50.728;4.160;2023-04-24T09:07:35;12.55;;;6.47;;
57635;SDS011;43465;50.728;4.160;2023-04-24T09:10:04;15.00;;;7.28;;
57635;SDS011;43465;50.728;4.160;2023-04-24T09:12:31;13.55;;;8.68;;
57635;SDS011;43465;50.728;4.160;2023-04-24T09:14:59;17.20;;;8.93;;
57635;SDS011;43465;50.728;4.160;2023-04-24T09:17:28;14.63;;;8.05;;
57635;SDS011;43465;50.728;4.160;2023-04-24T09:19:55;13.50;;;7.20;;
57635;SDS011;43465;50.728;4.160;2023-04-24T09:22:21;12.70;;;7.90;;
57635;SDS011;43465;50.728;4.160;2023-04-24T09:24:46;14.98;;;7.68;;
57635;SDS011;43465;50.728;4.160;2023-04-24T09:27:13;15.23;;;6.53;;
57635;SDS011;43465;50.728;4.160;2023-04-24T09:30:02;11.63;;;6.38;;
57635;SDS011;43465;50.728;4.160;2023-04-24T09:32:28;9.50;;;5.75;;
57635;SDS011;43465;50.728;4.160;2023-04-24T09:35:11;12.05;;;5.85;;
57635;SDS011;43465;50.728;4.160;2023-04-24T09:37:39;11.82;;;6.38;;
57635;SDS011;43465;50.728;4.160;2023-04-24T09:40:18;13.38;;;5.72;;
57635;SDS011;43465;50.728;4.160;2023-04-24T09:42:45;10.07;;;5.70;;
57635;SDS011;43465;50.728;4.160;2023-04-24T09:45:17;12.55;;;7.10;;
57635;SDS011;43465;50.728;4.160;2023-04-24T09:47:42;9.40;;;5.85;;
57635;SDS011;43465;50.728;4.160;2023-04-24T09:50:08;10.25;;;5.57;;
57635;SDS011;43465;50.728;4.160;2023-04-24T09:52:41;9.18;;;5.60;;
57635;SDS011;43465;50.728;4.160;2023-04-24T09:55:14;12.43;;;6.10;;
57635;SDS011;43465;50.728;4.160;2023-04-24T09:57:51;9.35;;;5.60;;
57635;SDS011;43465;50.728;4.160;2023-04-24T10:00:27;12.05;;;5.30;;
57635;SDS011;43465;50.728;4.160;2023-04-24T10:03:03;9.68;;;5.70;;
57635;SDS011;43465;50.728;4.160;2023-04-24T10:08:05;13.48;;;6.55;;
57635;SDS011;43465;50.728;4.160;2023-04-24T10:10:40;9.48;;;6.20;;
57635;SDS011;43465;50.728;4.160;2023-04-24T10:13:07;13.57;;;7.43;;
57635;SDS011;43465;50.728;4.160;2023-04-24T10:15:35;10.48;;;6.35;;
57635;SDS011;43465;50.728;4.160;2023-04-24T10:18:01;11.23;;;6.03;;
57635;SDS011;43465;50.728;4.160;2023-04-24T10:20:31;11.98;;;7.25;;
57635;SDS011;43465;50.728;4.160;2023-04-24T10:22:58;11.90;;;7.10;;
57635;SDS011;43465;50.728;4.160;2023-04-24T10:25:25;10.70;;;7.25;;
57635;SDS011;43465;50.728;4.160;2023-04-24T10:27:55;12.43;;;7.10;;
57635;SDS011;43465;50.728;4.160;2023-04-24T10:30:25;17.02;;;8.07;;
57635;SDS011;43465;50.728;4.160;2023-04-24T10:32:55;13.45;;;8.27;;
57635;SDS011;43465;50.728;4.160;2023-04-24T10:35:21;13.43;;;9.15;;
57635;SDS011;43465;50.728;4.160;2023-04-24T10:37:52;13.15;;;8.95;;
57635;SDS011;43465;50.728;4.160;2023-04-24T10:40:32;15.93;;;10.90;;
57635;SDS011;43465;50.728;4.160;2023-04-24T10:42:59;22.42;;;14.32;;
57635;SDS011;43465;50.728;4.160;2023-04-24T10:45:27;17.77;;;14.00;;
57635;SDS011;43465;50.728;4.160;2023-04-24T10:48:05;18.83;;;14.45;;
57635;SDS011;43465;50.728;4.160;2023-04-24T10:50:43;20.30;;;14.25;;
57635;SDS011;43465;50.728;4.160;2023-04-24T10:53:20;17.00;;;12.25;;
57635;SDS011;43465;50.728;4.160;2023-04-24T10:55:52;16.17;;;11.38;;
57635;SDS011;43465;50.728;4.160;2023-04-24T10:58:24;16.70;;;11.77;;
57635;SDS011;43465;50.728;4.160;2023-04-24T11:01:00;16.45;;;12.40;;
57635;SDS011;43465;50.728;4.160;2023-04-24T11:03:27;16.17;;;12.57;;
57635;SDS011;43465;50.728;4.160;2023-04-24T11:06:03;16.67;;;12.55;;
57635;SDS011;43465;50.728;4.160;2023-04-24T11:08:43;19.65;;;13.52;;
57635;SDS011;43465;50.728;4.160;2023-04-24T11:11:17;18.75;;;13.05;;
57635;SDS011;43465;50.728;4.160;2023-04-24T11:24:25;14.60;;;13.00;;
57635;SDS011;43465;50.728;4.160;2023-04-24T11:27:06;17.02;;;12.48;;
57635;SDS011;43465;50.728;4.160;2023-04-24T11:32:16;15.65;;;11.65;;
57635;SDS011;43465;50.728;4.160;2023-04-24T11:34:49;14.90;;;12.93;;
57635;SDS011;43465;50.728;4.160;2023-04-24T11:37:16;14.48;;;12.98;;
57635;SDS011;43465;50.728;4.160;2023-04-24T11:39:42;17.30;;;13.30;;
57635;SDS011;43465;50.728;4.160;2023-04-24T11:42:12;16.52;;;13.48;;
57635;SDS011;43465;50.728;4.160;2023-04-24T11:47:06;16.83;;;13.23;;
57635;SDS011;43465;50.728;4.160;2023-04-24T11:49:33;20.88;;;15.73;;
57635;SDS011;43465;50.728;4.160;2023-04-24T11:52:02;14.93;;;13.35;;
57635;SDS011;43465;50.728;4.160;2023-04-24T11:54:28;15.43;;;13.63;;
57635;SDS011;43465;50.728;4.160;2023-04-24T11:56:55;15.65;;;12.35;;
57635;SDS011;43465;50.728;4.160;2023-04-24T11:59:21;17.75;;;12.68;;
57635;SDS011;43465;50.728;4.160;2023-04-24T12:01:47;19.75;;;12.48;;
57635;SDS011;43465;50.728;4.160;2023-04-24T12:04:14;17.92;;;11.95;;
57635;SDS011;43465;50.728;4.160;2023-04-24T12:07:02;14.60;;;10.65;;
57635;SDS011;43465;50.728;4.160;2023-04-24T12:09:28;15.55;;;10.35;;
57635;SDS011;43465;50.728;4.160;2023-04-24T12:11:55;17.70;;;12.93;;
57635;SDS011;43465;50.728;4.160;2023-04-24T12:14:22;13.57;;;11.55;;
57635;SDS011;43465;50.728;4.160;2023-04-24T12:16:48;12.63;;;11.32;;
57635;SDS011;43465;50.728;4.160;2023-04-24T12:19:22;11.27;;;9.65;;
57635;SDS011;43465;50.728;4.160;2023-04-24T12:22:09;15.85;;;10.50;;
57635;SDS011;43465;50.728;4.160;2023-04-24T12:24:34;12.10;;;9.77;;
57635;SDS011;43465;50.728;4.160;2023-04-24T12:26:59;15.10;;;10.68;;
57635;SDS011;43465;50.728;4.160;2023-04-24T12:29:26;12.63;;;10.02;;
57635;SDS011;43465;50.728;4.160;2023-04-24T12:31:52;12.75;;;10.00;;
57635;SDS011;43465;50.728;4.160;2023-04-24T12:34:21;13.88;;;10.82;;
57635;SDS011;43465;50.728;4.160;2023-04-24T12:36:48;10.93;;;9.52;;
57635;SDS011;43465;50.728;4.160;2023-04-24T12:39:15;12.45;;;9.80;;
57635;SDS011;43465;50.728;4.160;2023-04-24T12:41:57;9.93;;;8.88;;
57635;SDS011;43465;50.728;4.160;2023-04-24T12:44:31;10.75;;;9.18;;
57635;SDS011;43465;50.728;4.160;2023-04-24T12:46:59;10.77;;;9.05;;
57635;SDS011;43465;50.728;4.160;2023-04-24T12:49:25;10.95;;;8.80;;
57635;SDS011;43465;50.728;4.160;2023-04-24T12:51:51;14.38;;;9.15;;
57635;SDS011;43465;50.728;4.160;2023-04-24T12:54:17;12.82;;;9.70;;
57635;SDS011;43465;50.728;4.160;2023-04-24T12:56:43;10.95;;;9.85;;
57635;SDS011;43465;50.728;4.160;2023-04-24T12:59:09;18.05;;;10.68;;
57635;SDS011;43465;50.728;4.160;2023-04-24T13:01:34;12.80;;;9.88;;
57635;SDS011;43465;50.728;4.160;2023-04-24T13:04:00;10.88;;;9.23;;
57635;SDS011;43465;50.728;4.160;2023-04-24T13:06:26;11.82;;;9.70;;
57635;SDS011;43465;50.728;4.160;2023-04-24T13:08:52;12.10;;;10.10;;
57635;SDS011;43465;50.728;4.160;2023-04-24T13:11:19;11.48;;;9.32;;
57635;SDS011;43465;50.728;4.160;2023-04-24T13:13:46;11.63;;;9.38;;
57635;SDS011;43465;50.728;4.160;2023-04-24T13:16:12;16.02;;;10.95;;
57635;SDS011;43465;50.728;4.160;2023-04-24T13:18:38;11.18;;;9.80;;
57635;SDS011;43465;50.728;4.160;2023-04-24T13:21:03;16.52;;;11.55;;
57635;SDS011;43465;50.728;4.160;2023-04-24T13:23:29;14.63;;;10.30;;
57635;SDS011;43465;50.728;4.160;2023-04-24T13:25:55;9.75;;;8.60;;
57635;SDS011;43465;50.728;4.160;2023-04-24T13:28:23;9.80;;;8.30;;
57635;SDS011;43465;50.728;4.160;2023-04-24T13:30:50;9.68;;;8.60;;
57635;SDS011;43465;50.728;4.160;2023-04-24T13:33:16;9.48;;;8.00;;
57635;SDS011;43465;50.728;4.160;2023-04-24T13:35:42;10.02;;;7.30;;
57635;SDS011;43465;50.728;4.160;2023-04-24T13:38:07;12.13;;;7.97;;
57635;SDS011;43465;50.728;4.160;2023-04-24T13:40:33;9.63;;;7.75;;
57635;SDS011;43465;50.728;4.160;2023-04-24T13:42:59;11.00;;;7.88;;
57635;SDS011;43465;50.728;4.160;2023-04-24T13:45:24;10.90;;;6.50;;
57635;SDS011;43465;50.728;4.160;2023-04-24T13:47:50;8.25;;;6.28;;
57635;SDS011;43465;50.728;4.160;2023-04-24T13:50:16;9.35;;;6.38;;
57635;SDS011;43465;50.728;4.160;2023-04-24T13:52:42;9.38;;;6.22;;
57635;SDS011;43465;50.728;4.160;2023-04-24T13:55:07;9.90;;;6.25;;
57635;SDS011;43465;50.728;4.160;2023-04-24T13:57:33;9.65;;;5.85;;
57635;SDS011;43465;50.728;4.160;2023-04-24T13:59:59;11.32;;;5.47;;
57635;SDS011;43465;50.728;4.160;2023-04-24T14:02:26;9.05;;;5.93;;
57635;SDS011;43465;50.728;4.160;2023-04-24T14:04:52;8.65;;;5.70;;
57635;SDS011;43465;50.728;4.160;2023-04-24T14:07:18;9.52;;;5.57;;
57635;SDS011;43465;50.728;4.160;2023-04-24T14:09:44;7.38;;;5.15;;
57635;SDS011;43465;50.728;4.160;2023-04-24T14:12:09;6.00;;;4.88;;
57635;SDS011;43465;50.728;4.160;2023-04-24T14:14:35;11.82;;;4.97;;
57635;SDS011;43465;50.728;4.160;2023-04-24T14:17:01;8.20;;;5.07;;
57635;SDS011;43465;50.728;4.160;2023-04-24T14:19:26;7.55;;;4.88;;
57635;SDS011;43465;50.728;4.160;2023-04-24T14:21:52;8.05;;;4.72;;
57635;SDS011;43465;50.728;4.160;2023-04-24T14:24:18;9.50;;;5.45;;
57635;SDS011;43465;50.728;4.160;2023-04-24T14:26:44;6.43;;;5.03;;
57635;SDS011;43465;50.728;4.160;2023-04-24T14:29:10;8.77;;;5.00;;
57635;SDS011;43465;50.728;4.160;2023-04-24T14:31:35;6.28;;;4.50;;
57635;SDS011;43465;50.728;4.160;2023-04-24T14:34:01;9.40;;;5.35;;
57635;SDS011;43465;50.728;4.160;2023-04-24T14:36:26;6.70;;;5.10;;
57635;SDS011;43465;50.728;4.160;2023-04-24T14:38:52;8.40;;;5.00;;
57635;SDS011;43465;50.728;4.160;2023-04-24T14:41:18;7.90;;;4.47;;
57635;SDS011;43465;50.728;4.160;2023-04-24T14:43:43;7.82;;;4.05;;